Time;durP1;ratioP1;P1;durP2;ratioP2;P2;SDS_P1;SDS_P2;PMS_P1;PMS_P2;Temp;Humidity;BMP_temperature;BMP_pressure;BME280_temperature;BME280_humidity;BME280_pressure;Samples;Min_cycle;Max_cycle;Signal;HPM_P1;HPM_P2
2022/04/04 00:00:51;;;;;;;12.38;9.98;;;6.00;99.90;;;;;;5080406;28;20131;-50
2022/04/04 00:03:17;;;;;;;14.50;9.45;;;6.00;99.90;;;;;;5084218;28;20119;-51
2022/04/04 00:05:43;;;;;;;15.18;10.52;;;5.90;99.90;;;;;;5074198;28;20036;-52
2022/04/04 00:08:09;;;;;;;12.88;9.55;;;5.90;99.90;;;;;;5093885;28;20138;-52
2022/04/04 00:10:35;;;;;;;12.20;9.50;;;5.90;99.90;;;;;;5090602;28;20036;-50
2022/04/04 00:13:01;;;;;;;17.08;10.43;;;5.90;99.90;;;;;;5067570;28;20035;-52
2022/04/04 00:15:27;;;;;;;13.75;9.90;;;5.90;99.90;;;;;;5089003;28;20059;-51
2022/04/04 00:17:55;;;;;;;15.80;10.75;;;5.90;99.90;;;;;;5074841;28;20028;-51
2022/04/04 00:20:22;;;;;;;14.23;11.15;;;5.80;99.90;;;;;;5075335;28;20040;-52
2022/04/04 00:22:47;;;;;;;14.77;10.80;;;5.90;99.90;;;;;;5084279;28;20460;-51
2022/04/04 00:25:13;;;;;;;16.73;10.38;;;5.90;99.90;;;;;;5077767;28;20048;-52
2022/04/04 00:27:39;;;;;;;14.02;9.93;;;5.90;99.90;;;;;;5038251;28;20032;-52
2022/04/04 00:30:05;;;;;;;16.83;10.60;;;5.90;99.90;;;;;;5076461;28;20032;-52
2022/04/04 00:32:31;;;;;;;14.80;10.75;;;5.90;99.90;;;;;;5085923;28;20028;-51
2022/04/04 00:35:00;;;;;;;17.48;9.98;;;5.90;99.90;;;;;;5058808;28;20063;-52
2022/04/04 00:37:26;;;;;;;13.93;9.48;;;5.90;99.90;;;;;;5078794;28;20036;-52
2022/04/04 00:39:52;;;;;;;15.75;9.35;;;5.90;99.90;;;;;;5041654;28;20049;-50
2022/04/04 00:42:18;;;;;;;13.43;9.57;;;6.00;99.90;;;;;;5075163;28;20028;-50
2022/04/04 00:44:45;;;;;;;16.10;9.38;;;5.80;99.90;;;;;;5038875;28;20088;-50
2022/04/04 00:47:12;;;;;;;15.82;9.55;;;;;;;;;;5073865;28;20405;-50
2022/04/04 00:49:37;;;;;;;20.23;10.48;;;5.90;99.90;;;;;;5075971;28;20067;-51
2022/04/04 00:52:05;;;;;;;25.63;17.40;;;5.90;99.90;;;;;;5068805;28;20056;-53
2022/04/04 00:54:31;;;;;;;18.48;13.38;;;5.90;99.90;;;;;;5081868;28;20499;-52
2022/04/04 00:57:00;;;;;;;13.68;10.63;;;6.00;99.90;;;;;;5070245;28;20529;-50
2022/04/04 00:59:26;;;;;;;14.48;9.80;;;6.00;99.90;;;;;;5077203;28;20542;-53
2022/04/04 01:01:52;;;;;;;16.52;9.63;;;6.00;99.90;;;;;;5076216;28;20036;-50
2022/04/04 01:04:18;;;;;;;16.80;10.20;;;6.00;99.90;;;;;;5085753;28;20074;-52
2022/04/04 01:06:43;;;;;;;13.30;9.27;;;5.90;99.90;;;;;;5093664;28;20062;-53
2022/04/04 01:09:16;;;;;;;15.10;9.98;;;5.90;99.90;;;;;;5082048;28;20024;-52
2022/04/04 01:12:03;;;;;;;14.30;10.27;;;5.70;99.90;;;;;;5077459;28;20111;-52
2022/04/04 01:14:29;;;;;;;14.80;9.32;;;5.40;99.90;;;;;;5104068;28;20036;-50
2022/04/04 01:16:55;;;;;;;15.30;9.50;;;5.80;99.90;;;;;;5084254;28;20028;-52
2022/04/04 01:19:22;;;;;;;15.38;8.80;;;5.20;99.90;;;;;;5089218;28;20043;-53
2022/04/04 01:21:48;;;;;;;12.88;8.65;;;5.50;99.90;;;;;;5091959;28;20067;-51
2022/04/04 01:24:20;;;;;;;14.55;9.32;;;5.40;99.90;;;;;;5083187;28;20452;-50
2022/04/04 01:26:47;;;;;;;12.48;8.25;;;5.10;99.90;;;;;;5083232;28;20028;-51
2022/04/04 01:29:13;;;;;;;15.63;9.85;;;;;;;;;;5078799;28;20499;-52
2022/04/04 01:31:39;;;;;;;26.02;13.80;;;5.50;99.90;;;;;;5076714;28;20037;-52
2022/04/04 01:34:06;;;;;;;25.02;13.50;;;5.40;99.90;;;;;;5078619;28;20040;-50
2022/04/04 01:36:32;;;;;;;21.85;13.38;;;5.30;99.90;;;;;;5049978;28;20032;-51
2022/04/04 01:38:58;;;;;;;34.47;16.15;;;;;;;;;;5029774;28;20036;-50
2022/04/04 01:41:27;;;;;;;26.65;14.18;;;5.70;99.90;;;;;;5088226;28;20132;-52
2022/04/04 01:43:53;;;;;;;37.00;18.55;;;5.40;99.90;;;;;;5067560;28;20431;-50
2022/04/04 01:46:24;;;;;;;21.73;13.98;;;5.20;99.90;;;;;;5078321;28;20039;-51
2022/04/04 01:48:55;;;;;;;15.32;9.88;;;5.80;99.90;;;;;;5095573;28;20044;-52
2022/04/04 01:51:22;;;;;;;14.63;9.27;;;5.60;99.90;;;;;;5085362;28;20369;-50
2022/04/04 01:53:48;;;;;;;16.50;9.45;;;5.30;99.90;;;;;;5032593;28;20627;-52
2022/04/04 01:56:14;;;;;;;14.43;8.73;;;5.50;99.90;;;;;;5081172;28;20028;-50
2022/04/04 01:58:41;;;;;;;11.10;8.20;;;5.30;99.90;;;;;;5082079;28;20077;-50
2022/04/04 02:01:15;;;;;;;11.50;8.48;;;5.40;99.90;;;;;;5081540;28;20064;-52
2022/04/04 02:03:42;;;;;;;16.05;8.48;;;5.20;99.90;;;;;;5096552;28;20036;-50
2022/04/04 02:06:08;;;;;;;11.73;8.85;;;5.70;99.90;;;;;;5090971;28;20106;-52
2022/04/04 02:08:34;;;;;;;12.05;9.88;;;5.50;99.90;;;;;;5089463;28;20459;-50
2022/04/04 02:11:01;;;;;;;12.77;8.73;;;5.40;99.90;;;;;;5077256;28;20025;-52
2022/04/04 02:13:28;;;;;;;16.20;10.55;;;5.40;99.90;;;;;;5081620;28;20036;-50
2022/04/04 02:16:00;;;;;;;13.10;8.88;;;5.50;99.90;;;;;;5088212;28;20485;-52
2022/04/04 02:18:31;;;;;;;20.92;11.23;;;5.50;99.90;;;;;;5088204;28;20028;-53
2022/04/04 02:20:58;;;;;;;12.20;9.40;;;5.10;99.90;;;;;;5093548;28;20066;-51
2022/04/04 02:23:24;;;;;;;12.90;8.27;;;5.10;99.90;;;;;;5076230;28;20052;-53
2022/04/04 02:25:52;;;;;;;13.98;9.32;;;5.20;99.90;;;;;;5093922;28;20032;-51
2022/04/04 02:28:18;;;;;;;13.45;9.40;;;5.30;99.90;;;;;;5089334;28;20460;-51
2022/04/04 02:30:46;;;;;;;11.07;8.50;;;5.50;99.90;;;;;;5079158;28;20130;-50
2022/04/04 02:33:12;;;;;;;14.88;9.10;;;5.10;99.90;;;;;;5094935;28;20044;-55
2022/04/04 02:35:39;;;;;;;14.48;8.57;;;5.30;99.90;;;;;;5080924;28;20032;-56
2022/04/04 02:38:05;;;;;;;15.20;8.90;;;5.10;99.90;;;;;;5081587;28;20530;-52
2022/04/04 02:40:32;;;;;;;16.92;9.95;;;5.10;99.90;;;;;;5091231;28;20082;-52
2022/04/04 02:42:58;;;;;;;13.95;10.95;;;5.20;99.90;;;;;;5086683;28;20051;-51
2022/04/04 02:45:25;;;;;;;20.42;10.50;;;5.50;99.90;;;;;;5078612;28;20124;-51
2022/04/04 02:47:50;;;;;;;14.30;9.38;;;5.10;99.90;;;;;;5090455;28;20044;-50
2022/04/04 02:50:16;;;;;;;12.75;8.93;;;5.50;99.90;;;;;;5088620;28;20358;-51
2022/04/04 02:52:43;;;;;;;11.95;8.48;;;5.40;99.90;;;;;;5084184;28;20086;-52
2022/04/04 02:57:55;;;;;;;13.02;8.50;;;5.70;99.90;;;;;;5076194;28;20372;-52
2022/04/04 03:00:24;;;;;;;14.27;8.95;;;5.50;99.90;;;;;;5088744;28;20036;-53
2022/04/04 03:02:52;;;;;;;14.35;9.43;;;5.30;99.90;;;;;;5091225;28;20376;-52
2022/04/04 03:05:18;;;;;;;12.35;8.55;;;5.40;99.90;;;;;;5078098;28;20465;-53
2022/04/04 03:07:43;;;;;;;11.00;8.25;;;5.60;99.90;;;;;;5086154;28;20077;-52
2022/04/04 03:10:10;;;;;;;13.68;8.82;;;5.40;99.90;;;;;;5081737;28;20039;-49
2022/04/04 03:12:43;;;;;;;13.95;9.57;;;5.40;99.90;;;;;;5078949;28;20056;-52
2022/04/04 03:15:12;;;;;;;13.95;10.77;;;5.30;99.90;;;;;;5089262;28;20024;-56
2022/04/04 03:17:42;;;;;;;16.77;9.75;;;5.30;99.90;;;;;;5079421;28;20035;-52
2022/04/04 03:20:09;;;;;;;13.90;9.05;;;5.10;99.90;;;;;;5040734;28;20059;-51
2022/04/04 03:22:37;;;;;;;12.90;8.95;;;5.20;99.90;;;;;;5062163;28;20074;-52
2022/04/04 03:25:04;;;;;;;18.65;9.30;;;5.20;99.90;;;;;;5041727;28;20063;-54
2022/04/04 03:27:30;;;;;;;14.68;8.85;;;5.50;99.90;;;;;;4978385;28;20481;-51
2022/04/04 03:29:56;;;;;;;11.52;8.88;;;;;;;;;;5057588;28;20032;-52
2022/04/04 03:32:22;;;;;;;11.52;8.20;;;5.00;99.90;;;;;;5058789;28;20040;-51
2022/04/04 03:34:47;;;;;;;13.02;8.98;;;5.50;99.90;;;;;;5057388;28;20033;-52
2022/04/04 03:37:13;;;;;;;13.95;8.38;;;;;;;;;;5020945;28;20052;-50
2022/04/04 03:39:39;;;;;;;13.85;9.23;;;5.40;99.90;;;;;;5058255;28;20116;-51
2022/04/04 03:42:05;;;;;;;20.25;9.20;;;5.20;99.90;;;;;;5024947;28;20123;-50
2022/04/04 03:44:31;;;;;;;19.10;9.73;;;;;;;;;;5016821;28;20199;-53
2022/04/04 03:46:57;;;;;;;15.93;8.73;;;5.00;99.90;;;;;;5061416;28;20032;-51
2022/04/04 03:49:23;;;;;;;12.15;8.68;;;5.20;99.90;;;;;;5057249;28;20021;-50
2022/04/04 03:51:49;;;;;;;14.98;9.73;;;4.80;99.90;;;;;;5032604;28;20127;-52
2022/04/04 03:54:15;;;;;;;12.20;9.30;;;5.10;99.90;;;;;;5083866;28;20467;-52
2022/04/04 03:56:41;;;;;;;14.70;9.00;;;;;;;;;;5074165;28;20043;-50
2022/04/04 03:59:06;;;;;;;13.40;8.77;;;5.00;99.90;;;;;;5082232;28;20471;-51
2022/04/04 04:01:32;;;;;;;13.82;8.32;;;4.90;99.90;;;;;;5085260;28;20062;-51
2022/04/04 04:03:58;;;;;;;14.90;9.00;;;;;;;;;;5084256;28;20020;-50
2022/04/04 04:06:24;;;;;;;13.25;8.65;;;5.00;99.90;;;;;;5073879;28;20435;-53
2022/04/04 04:08:50;;;;;;;13.48;9.38;;;5.00;99.90;;;;;;5076831;28;20063;-51
2022/04/04 04:11:18;;;;;;;13.45;8.77;;;5.00;99.90;;;;;;5072280;28;20357;-52
2022/04/04 04:13:46;;;;;;;17.75;9.20;;;4.90;99.90;;;;;;5073517;28;20044;-52
2022/04/04 04:16:14;;;;;;;13.63;8.68;;;4.90;99.90;;;;;;5073899;28;20058;-52
2022/04/04 04:18:41;;;;;;;22.27;9.60;;;5.00;99.90;;;;;;5100702;28;20045;-50
2022/04/04 04:21:09;;;;;;;12.25;8.48;;;4.90;99.90;;;;;;5071441;28;20048;-50
2022/04/04 04:23:38;;;;;;;14.45;9.23;;;4.90;99.90;;;;;;5075642;28;20036;-51
2022/04/04 04:26:06;;;;;;;14.52;8.10;;;4.90;99.90;;;;;;5077587;28;20487;-52
2022/04/04 04:28:32;;;;;;;16.33;8.93;;;4.70;99.90;;;;;;5084270;28;20067;-52
2022/04/04 04:31:02;;;;;;;15.93;9.68;;;4.90;99.90;;;;;;5072792;28;20056;-51
2022/04/04 04:33:29;;;;;;;12.07;8.10;;;4.90;99.90;;;;;;5072299;28;20040;-53
2022/04/04 04:35:57;;;;;;;15.30;9.45;;;4.90;99.90;;;;;;5074033;28;20484;-51
2022/04/04 04:38:22;;;;;;;17.08;9.32;;;4.90;99.90;;;;;;5075118;28;20091;-53
2022/04/04 04:40:48;;;;;;;16.83;10.18;;;4.90;99.90;;;;;;5082508;28;20041;-52
2022/04/04 04:43:14;;;;;;;14.30;9.32;;;5.00;99.90;;;;;;5083611;28;20028;-50
2022/04/04 04:45:39;;;;;;;19.55;10.32;;;4.60;99.90;;;;;;5089135;28;20039;-50
2022/04/04 04:48:05;;;;;;;23.48;12.18;;;5.00;99.90;;;;;;5071671;28;20037;-52
2022/04/04 04:50:31;;;;;;;24.40;15.50;;;5.00;99.90;;;;;;5082952;28;20031;-51
2022/04/04 04:52:57;;;;;;;34.47;19.65;;;5.00;99.90;;;;;;5037987;28;20024;-51
2022/04/04 04:55:25;;;;;;;41.13;22.83;;;5.10;99.90;;;;;;5074552;28;20035;-52
2022/04/04 04:57:52;;;;;;;37.45;21.58;;;5.20;99.90;;;;;;5086245;28;20032;-51
2022/04/04 05:00:21;;;;;;;38.70;18.58;;;5.10;99.90;;;;;;5074131;28;20036;-52
2022/04/04 05:03:24;;;;;;;28.35;14.82;;;5.20;99.90;;;;;;5074706;28;20048;-49
2022/04/04 05:05:33;;;;;;;38.67;21.98;;;;;;;;;;5093021;28;20436;-53
2022/04/04 05:08:00;;;;;;;35.22;22.70;;;4.90;99.90;;;;;;5098174;28;20028;-52
2022/04/04 05:10:27;;;;;;;35.33;21.60;;;4.90;99.90;;;;;;5093022;28;20115;-52
2022/04/04 05:12:53;;;;;;;31.55;18.90;;;4.90;99.90;;;;;;5089948;28;20024;-52
2022/04/04 05:15:19;;;;;;;31.15;20.17;;;4.90;99.90;;;;;;5095313;28;20428;-50
2022/04/04 05:17:45;;;;;;;26.75;19.13;;;5.10;99.90;;;;;;5057266;28;20067;-50
2022/04/04 05:20:11;;;;;;;21.20;14.25;;;5.10;99.90;;;;;;5092547;28;20097;-52
2022/04/04 05:22:37;;;;;;;18.17;12.38;;;4.90;99.90;;;;;;5053547;28;20431;-51
2022/04/04 05:25:03;;;;;;;19.13;12.88;;;5.00;99.90;;;;;;5057480;28;20472;-52
2022/04/04 05:27:29;;;;;;;19.65;12.50;;;4.80;99.90;;;;;;5091021;28;20108;-53
2022/04/04 05:29:54;;;;;;;22.42;15.45;;;4.80;99.90;;;;;;5097138;28;20035;-52
2022/04/04 05:32:20;;;;;;;24.05;16.52;;;4.50;99.90;;;;;;5103894;28;20491;-51
2022/04/04 05:34:46;;;;;;;35.88;22.38;;;4.60;99.90;;;;;;5100450;28;20082;-53
2022/04/04 05:37:12;;;;;;;29.67;20.60;;;4.70;99.90;;;;;;5077665;28;20036;-52
2022/04/04 05:39:39;;;;;;;25.77;14.93;;;5.10;99.90;;;;;;5072840;28;20036;-53
2022/04/04 05:42:05;;;;;;;29.23;15.98;;;5.20;99.90;;;;;;5074130;28;20052;-52
2022/04/04 05:44:32;;;;;;;25.58;15.50;;;5.40;99.90;;;;;;5089299;28;20028;-54
2022/04/04 05:46:59;;;;;;;28.63;15.57;;;5.60;99.90;;;;;;5085236;28;20040;-54
2022/04/04 05:49:25;;;;;;;20.90;11.90;;;5.90;99.90;;;;;;5095138;28;20022;-76
2022/04/04 05:51:51;;;;;;;19.80;12.63;;;6.10;99.90;;;;;;5082673;28;20028;-53
2022/04/04 05:54:17;;;;;;;22.58;12.73;;;6.30;99.90;;;;;;5082567;28;20104;-52
2022/04/04 05:56:46;;;;;;;24.23;13.27;;;6.30;99.90;;;;;;5090005;28;20063;-52
2022/04/04 05:59:14;;;;;;;27.75;13.07;;;6.30;99.90;;;;;;5077238;28;20029;-52
2022/04/04 06:01:40;;;;;;;21.48;12.82;;;6.40;99.90;;;;;;5076346;28;20044;-52
2022/04/04 06:04:06;;;;;;;25.52;14.25;;;6.30;99.90;;;;;;5079263;28;20108;-52
2022/04/04 06:06:32;;;;;;;19.85;13.10;;;6.60;99.90;;;;;;5085366;28;20051;-52
2022/04/04 06:08:58;;;;;;;17.40;11.40;;;6.80;99.90;;;;;;5081079;28;20056;-52
2022/04/04 06:11:24;;;;;;;16.85;11.77;;;6.70;99.90;;;;;;5091787;28;20093;-53
2022/04/04 06:13:50;;;;;;;16.08;11.45;;;6.80;99.90;;;;;;5082658;28;20089;-52
2022/04/04 06:16:17;;;;;;;15.77;11.35;;;;;;;;;;5105195;28;20029;-52
2022/04/04 06:18:44;;;;;;;18.65;11.80;;;;;;;;;;5096044;28;20043;-53
2022/04/04 06:21:10;;;;;;;23.17;15.10;;;;;;;;;;5046534;28;20454;-52
2022/04/04 06:23:36;;;;;;;23.80;17.70;;;;;;;;;;5101100;28;20539;-52
2022/04/04 06:26:05;;;;;;;13.95;9.88;;;7.30;99.90;;;;;;5096843;28;20058;-54
2022/04/04 06:28:34;;;;;;;18.23;11.20;;;7.30;99.90;;;;;;5094432;28;20586;-53
2022/04/04 06:31:04;;;;;;;17.77;11.70;;;7.40;99.90;;;;;;5104051;28;20032;-52
2022/04/04 06:33:30;;;;;;;15.82;10.77;;;7.50;99.90;;;;;;5097281;28;20049;-52
2022/04/04 06:35:56;;;;;;;13.18;9.35;;;7.50;99.90;;;;;;5082677;28;20036;-52
2022/04/04 06:38:22;;;;;;;14.82;11.10;;;;;;;;;;5094190;28;20114;-52
2022/04/04 06:40:49;;;;;;;12.82;9.43;;;;;;;;;;5096759;28;20036;-52
2022/04/04 06:43:17;;;;;;;13.88;9.35;;;;;;;;;;5097456;28;20036;-53
2022/04/04 06:45:44;;;;;;;11.15;8.60;;;8.30;99.90;;;;;;5106613;28;20479;-52
2022/04/04 06:48:11;;;;;;;20.13;12.10;;;8.30;99.90;;;;;;5079658;28;20097;-52
2022/04/04 06:50:37;;;;;;;14.43;9.68;;;8.10;99.90;;;;;;5084106;28;20016;-52
2022/04/04 06:53:03;;;;;;;12.27;9.30;;;8.20;99.90;;;;;;5067302;28;20166;-52
2022/04/04 06:55:28;;;;;;;13.73;8.60;;;8.20;99.90;;;;;;5077201;28;20103;-53
2022/04/04 06:57:55;;;;;;;11.70;9.60;;;;;;;;;;5097640;28;20464;-53
2022/04/04 07:00:23;;;;;;;15.07;8.23;;;;;;;;;;5087603;28;20036;-52
2022/04/04 07:02:50;;;;;;;13.38;9.93;;;;;;;;;;5076083;28;20035;-52
2022/04/04 07:05:16;;;;;;;11.60;9.10;;;8.60;99.90;;;;;;5079669;28;20035;-52
2022/04/04 07:07:42;;;;;;;14.65;9.20;;;8.60;99.90;;;;;;5080153;28;20028;-51
2022/04/04 07:10:10;;;;;;;16.25;10.07;;;8.70;99.90;;;;;;5087459;28;20440;-52
2022/04/04 07:12:40;;;;;;;13.98;9.70;;;8.80;99.90;;;;;;5081846;28;20037;-52
2022/04/04 07:15:08;;;;;;;27.35;19.90;;;9.00;99.90;;;;;;5076233;28;20210;-52
2022/04/04 07:17:34;;;;;;;25.35;18.67;;;8.80;99.90;;;;;;5081402;28;20029;-52
2022/04/04 07:20:00;;;;;;;24.95;15.90;;;8.70;99.90;;;;;;5085276;28;20086;-51
2022/04/04 07:22:26;;;;;;;16.08;10.48;;;8.70;99.90;;;;;;5075502;28;20106;-53
2022/04/04 07:24:52;;;;;;;16.88;10.82;;;;;;;;;;5075186;28;20039;-53
2022/04/04 07:27:17;;;;;;;12.07;10.02;;;9.50;99.90;;;;;;5076126;28;20033;-53
2022/04/04 07:29:43;;;;;;;14.55;11.20;;;9.60;99.90;;;;;;5076997;28;20119;-52
2022/04/04 07:32:09;;;;;;;15.02;12.13;;;;;;;;;;5091021;28;20447;-51
2022/04/04 07:34:37;;;;;;;14.45;9.02;;;;;;;;;;5074971;28;20483;-52
2022/04/04 07:37:04;;;;;;;15.77;9.88;;;;;;;;;;5075589;28;20024;-52
2022/04/04 07:39:31;;;;;;;13.70;8.35;;;10.30;99.90;;;;;;5075402;28;20028;-53
2022/04/04 07:41:57;;;;;;;9.90;8.18;;;;;;;;;;5073291;28;20573;-52
2022/04/04 07:44:23;;;;;;;14.10;8.30;;;;;;;;;;5078690;28;20127;-52
2022/04/04 07:46:49;;;;;;;12.95;8.38;;;;;;;;;;5076081;28;20495;-52
2022/04/04 07:49:17;;;;;;;76.45;50.45;;;11.20;99.90;;;;;;5074530;28;20028;-52
2022/04/04 07:51:42;;;;;;;13.43;11.30;;;11.10;99.90;;;;;;5076999;28;20037;-53
2022/04/04 07:54:08;;;;;;;10.82;7.47;;;11.40;99.90;;;;;;5074547;28;20035;-51
2022/04/04 07:56:34;;;;;;;15.10;7.47;;;11.40;99.80;;;;;;5079236;28;20028;-51
2022/04/04 07:59:00;;;;;;;12.65;7.50;;;;;;;;;;5080282;28;20404;-51
2022/04/04 08:01:26;;;;;;;11.65;7.00;;;11.10;99.90;;;;;;5073939;28;20040;-53
2022/04/04 08:03:52;;;;;;;10.82;7.25;;;;;;;;;;5091686;28;20052;-52
2022/04/04 08:06:18;;;;;;;10.93;8.15;;;11.40;99.90;;;;;;5076965;28;20033;-54
2022/04/04 08:08:44;;;;;;;10.82;6.75;;;;;;;;;;5086938;28;20606;-52
2022/04/04 08:11:11;;;;;;;17.45;7.82;;;;;;;;;;5074385;28;20024;-51
2022/04/04 08:13:42;;;;;;;9.63;6.70;;;;;;;;;;5076365;28;20037;-53
2022/04/04 08:16:09;;;;;;;8.80;6.22;;;;;;;;;;5071284;28;20058;-51
2022/04/04 08:18:34;;;;;;;7.85;6.43;;;13.10;98.70;;;;;;5090883;28;20082;-54
2022/04/04 08:21:00;;;;;;;10.07;6.70;;;13.10;99.50;;;;;;5075223;28;20048;-53
2022/04/04 08:23:29;;;;;;;13.95;7.35;;;13.10;94.70;;;;;;5074030;28;20050;-52
2022/04/04 08:25:59;;;;;;;11.55;6.32;;;13.40;93.80;;;;;;5075318;28;20033;-52
2022/04/04 08:28:25;;;;;;;10.15;5.90;;;13.60;94.20;;;;;;5079320;28;20032;-55
2022/04/04 08:30:51;;;;;;;7.80;5.88;;;13.90;92.30;;;;;;5072423;28;20028;-51
2022/04/04 08:33:18;;;;;;;7.22;5.28;;;14.10;91.60;;;;;;5081378;28;20051;-54
2022/04/04 08:35:45;;;;;;;8.35;5.70;;;14.10;90.70;;;;;;5073477;28;20115;-48
2022/04/04 08:38:11;;;;;;;58.65;35.03;;;14.30;88.90;;;;;;5073834;28;20056;-51
2022/04/04 08:40:38;;;;;;;18.65;15.13;;;14.70;93.70;;;;;;5075924;28;20032;-48
2022/04/04 08:43:10;;;;;;;9.45;6.68;;;14.80;87.80;;;;;;5074926;28;20040;-49
2022/04/04 08:45:36;;;;;;;;;;;;;;;;;;5074998;28;20039;-48
2022/04/04 08:48:02;;;;;;;26.27;17.33;;;14.90;85.40;;;;;;5073063;28;19955;-53
2022/04/04 08:50:28;;;;;;;11.15;7.63;;;15.10;87.10;;;;;;5080176;28;20461;-49
2022/04/04 08:52:54;;;;;;;6.72;4.72;;;14.60;88.10;;;;;;5049040;28;20119;-48
2022/04/04 08:55:20;;;;;;;7.03;5.00;;;14.60;83.30;;;;;;5071646;28;20368;-46
2022/04/04 08:57:45;;;;;;;9.25;6.28;;;14.80;86.80;;;;;;5072112;28;20051;-48
2022/04/04 09:00:12;;;;;;;12.73;6.70;;;15.40;84.30;;;;;;5084769;28;20039;-46
2022/04/04 09:02:38;;;;;;;8.02;6.13;;;15.10;84.40;;;;;;5004372;28;20071;-47
2022/04/04 09:05:05;;;;;;;7.88;6.30;;;15.10;82.70;;;;;;5064983;28;20032;-52
2022/04/04 09:07:51;;;;;;;7.25;5.70;;;15.00;83.50;;;;;;5056476;28;20043;-49
2022/04/04 09:10:18;;;;;;;7.18;4.90;;;14.20;82.10;;;;;;5083997;28;20028;-48
2022/04/04 09:12:48;;;;;;;7.63;6.50;;;14.30;80.40;;;;;;5073555;28;20048;-47
2022/04/04 09:15:14;;;;;;;8.93;5.65;;;15.20;82.60;;;;;;5071573;28;20532;-46
2022/04/04 09:17:46;;;;;;;6.72;5.38;;;15.20;81.80;;;;;;5054188;28;20036;-50
2022/04/04 09:20:12;;;;;;;;;;;;;;;;;;5071401;28;20124;-48
2022/04/04 09:22:51;;;;;;;7.57;5.75;;;;;;;;;;5071982;28;20011;-47
2022/04/04 09:25:30;;;;;;;6.47;4.93;;;16.70;99.90;;;;;;5077501;28;20089;-47
2022/04/04 09:28:14;;;;;;;6.60;4.80;;;16.90;80.80;;;;;;5082698;28;20618;-48
2022/04/04 09:30:40;;;;;;;10.02;6.18;;;;;;;;;;5075882;28;20040;-46
2022/04/04 09:33:06;;;;;;;6.38;4.72;;;;;;;;;;5075513;28;20059;-51
2022/04/04 09:35:43;;;;;;;6.35;5.07;;;16.00;99.90;;;;;;5076130;28;20071;-51
2022/04/04 09:38:13;;;;;;;6.65;4.85;;;16.20;76.70;;;;;;5074563;28;20033;-51
2022/04/04 09:40:40;;;;;;;6.32;4.78;;;;;;;;;;5088365;28;20072;-51
2022/04/04 09:43:06;;;;;;;10.05;6.07;;;16.90;81.30;;;;;;5075801;28;20081;-51
2022/04/04 09:45:32;;;;;;;7.35;5.57;;;16.90;77.00;;;;;;5078620;28;20074;-52
2022/04/04 09:47:59;;;;;;;6.05;4.78;;;;;;;;;;5045193;28;20678;-51
2022/04/04 09:50:30;;;;;;;10.02;5.18;;;;;;;;;;5085640;28;20459;-51
2022/04/04 09:52:57;;;;;;;9.05;6.55;;;;;;;;;;5031705;28;20037;-51
2022/04/04 09:55:29;;;;;;;6.47;5.20;;;;;;;;;;5080482;28;20476;-51
2022/04/04 09:57:59;;;;;;;5.72;4.45;;;16.50;77.90;;;;;;5069404;28;20480;-51
2022/04/04 10:00:26;;;;;;;7.13;5.32;;;16.40;73.60;;;;;;5072862;28;20119;-51
2022/04/04 10:02:58;;;;;;;9.10;6.57;;;16.60;75.30;;;;;;5071502;28;20032;-51
2022/04/04 10:05:28;;;;;;;6.80;5.40;;;17.10;76.80;;;;;;5070014;28;20063;-51
2022/04/04 10:07:56;;;;;;;6.10;5.05;;;16.70;73.80;;;;;;5071941;28;20070;-51
2022/04/04 10:10:26;;;;;;;6.85;4.90;;;16.90;74.90;;;;;;5073509;28;20032;-52
2022/04/04 10:12:57;;;;;;;7.30;5.55;;;17.30;75.50;;;;;;5073091;28;20075;-52
2022/04/04 10:15:24;;;;;;;10.05;7.05;;;;;;;;;;5041993;28;20086;-51
2022/04/04 10:17:52;;;;;;;12.23;8.55;;;17.90;79.80;;;;;;5075665;28;20033;-51
2022/04/04 10:20:19;;;;;;;7.00;5.18;;;;;;;;;;5082771;28;20040;-51
2022/04/04 10:22:46;;;;;;;7.53;5.50;;;;;;;;;;5080557;28;20052;-51
2022/04/04 10:25:14;;;;;;;8.82;7.47;;;18.40;95.50;;;;;;5085383;28;20039;-52
2022/04/04 10:27:44;;;;;;;6.35;5.20;;;17.60;73.60;;;;;;5077014;28;20016;-51
2022/04/04 10:30:10;;;;;;;5.93;5.10;;;17.00;72.50;;;;;;5078445;28;20126;-51
2022/04/04 10:32:53;;;;;;;7.15;5.40;;;16.60;71.80;;;;;;5077375;28;20043;-51
2022/04/04 10:35:22;;;;;;;8.02;6.47;;;17.40;74.50;;;;;;5071993;28;20178;-51
2022/04/04 10:37:49;;;;;;;11.68;6.00;;;17.50;72.40;;;;;;5092091;28;20082;-51
2022/04/04 10:40:20;;;;;;;8.35;6.68;;;16.50;72.50;;;;;;5097949;28;20059;-51
2022/04/04 10:42:48;;;;;;;6.15;5.40;;;17.10;73.80;;;;;;5078532;28;20495;-51
2022/04/04 10:45:15;;;;;;;7.38;4.85;;;17.50;74.00;;;;;;5081179;28;20392;-51
2022/04/04 10:47:44;;;;;;;7.93;4.85;;;18.20;74.40;;;;;;5076562;28;20032;-54
2022/04/04 10:50:24;;;;;;;8.48;5.90;;;16.70;69.90;;;;;;5087113;28;20054;-51
2022/04/04 10:52:52;;;;;;;7.72;4.47;;;17.20;71.00;;;;;;5073493;28;20048;-51
2022/04/04 10:55:43;;;;;;;7.28;4.80;;;17.30;70.10;;;;;;5073740;28;20036;-51
2022/04/04 10:58:15;;;;;;;7.82;5.30;;;;;;;;;;5076037;28;20033;-51
2022/04/04 11:00:58;;;;;;;6.07;4.70;;;14.40;94.90;;;;;;5073367;28;20079;-53
2022/04/04 11:03:38;;;;;;;12.00;6.13;;;;;;;;;;5073598;28;20448;-58
2022/04/04 11:12:14;;;;;;;8.13;4.88;;;16.70;99.40;;;;;;5073341;28;20186;-52
2022/04/04 11:14:41;;;;;;;6.18;4.60;;;16.90;72.60;;;;;;5076623;28;20082;-52
2022/04/04 11:20:10;;;;;;;9.73;7.55;;;;;;;;;;5074657;28;20131;-49
2022/04/04 11:22:42;;;;;;;7.85;4.63;;;17.30;72.80;;;;;;5074037;28;20123;-49
2022/04/04 11:25:08;;;;;;;;;;;;;;;;;;5085825;28;20036;-49
2022/04/04 11:27:36;;;;;;;5.80;4.85;;;15.40;89.20;;;;;;5078081;28;19996;-50
2022/04/04 11:30:06;;;;;;;5.50;4.22;;;15.30;76.80;;;;;;5091902;28;20037;-49
2022/04/04 11:32:43;;;;;;;8.30;5.07;;;15.70;72.00;;;;;;5072601;28;20044;-50
2022/04/04 11:35:11;;;;;;;11.63;7.43;;;15.50;73.20;;;;;;5038191;28;20096;-50
2022/04/04 11:37:41;;;;;;;4.90;4.35;;;16.30;74.00;;;;;;5004621;28;20037;-50
2022/04/04 11:40:08;;;;;;;6.80;4.40;;;16.60;73.30;;;;;;5033525;28;20048;-49
2022/04/04 11:42:44;;;;;;;6.72;5.53;;;17.30;77.50;;;;;;5051299;28;20386;-49
2022/04/04 11:45:14;;;;;;;7.30;4.50;;;18.00;90.90;;;;;;5026060;28;20084;-50
2022/04/04 11:47:41;;;;;;;5.78;4.72;;;17.40;90.30;;;;;;5034509;28;20033;-50
2022/04/04 11:50:08;;;;;;;6.00;4.45;;;17.60;73.40;;;;;;5018148;28;20048;-49
2022/04/04 11:52:50;;;;;;;5.07;3.88;;;18.50;71.20;;;;;;5043406;28;20033;-51
2022/04/04 11:55:20;;;;;;;6.72;4.20;;;;;;;;;;5035812;28;20507;-49
2022/04/04 11:57:49;;;;;;;8.38;5.68;;;;;;;;;;5032068;28;20075;-48
2022/04/04 12:00:30;;;;;;;8.07;4.22;;;18.50;73.50;;;;;;5035086;28;20053;-46
2022/04/04 12:02:57;;;;;;;5.32;4.30;;;;;;;;;;5038073;28;20059;-47
2022/04/04 12:05:23;;;;;;;8.90;6.28;;;;;;;;;;5028135;28;20056;-47
2022/04/04 12:07:51;;;;;;;6.65;4.90;;;;;;;;;;5048981;28;20076;-47
2022/04/04 12:10:32;;;;;;;6.95;5.05;;;17.60;75.80;;;;;;5032209;28;20099;-46
2022/04/04 12:13:00;;;;;;;5.20;4.70;;;17.80;76.90;;;;;;5065366;28;20040;-46
2022/04/04 12:15:29;;;;;;;9.45;5.05;;;17.30;75.50;;;;;;5091585;28;20074;-46
2022/04/04 12:17:55;;;;;;;7.97;5.22;;;17.40;84.10;;;;;;5081690;28;20060;-47
2022/04/04 12:20:22;;;;;;;6.63;4.72;;;17.90;86.50;;;;;;5078613;28;20068;-47
2022/04/04 12:25:32;;;;;;;5.28;4.78;;;18.10;70.70;;;;;;5082044;28;20066;-46
2022/04/04 12:27:59;;;;;;;10.00;6.03;;;;;;;;;;5071625;28;20040;-48
2022/04/04 12:30:37;;;;;;;8.73;5.20;;;16.60;90.60;;;;;;5076773;28;20029;-48
2022/04/04 12:33:11;;;;;;;7.47;4.93;;;16.70;90.70;;;;;;5072550;28;20051;-48
2022/04/04 12:35:48;;;;;;;6.95;5.18;;;16.10;71.30;;;;;;5079961;28;20187;-48
2022/04/04 12:38:35;;;;;;;6.78;5.15;;;16.10;74.40;;;;;;5069043;28;20084;-48
2022/04/04 12:41:16;;;;;;;6.47;4.70;;;16.80;79.00;;;;;;5076132;28;20032;-48
2022/04/04 12:43:43;;;;;;;6.38;4.88;;;16.20;77.80;;;;;;5074140;28;20390;-48
2022/04/04 12:46:27;;;;;;;9.88;5.82;;;16.40;80.80;;;;;;5096918;28;20055;-50
2022/04/04 12:48:54;;;;;;;8.05;5.78;;;;;;;;;;5072083;28;20032;-50
2022/04/04 12:51:30;;;;;;;7.05;4.45;;;;;;;;;;5091048;28;20543;-51
2022/04/04 12:53:57;;;;;;;5.43;4.50;;;;;;;;;;5075326;28;20376;-50
2022/04/04 12:56:23;;;;;;;6.55;5.03;;;18.40;80.20;;;;;;5089507;28;20048;-48
2022/04/04 12:59:02;;;;;;;6.72;5.25;;;;;;;;;;5072073;28;20637;-48
2022/04/04 13:01:28;;;;;;;7.53;5.72;;;18.90;70.70;;;;;;5076252;28;20040;-48
2022/04/04 13:03:54;;;;;;;5.55;4.72;;;19.20;70.60;;;;;;5065114;28;20031;-48
2022/04/04 13:06:23;;;;;;;6.63;5.03;;;17.80;79.70;;;;;;5070899;28;20464;-48
2022/04/04 13:08:56;;;;;;;7.75;5.45;;;18.20;81.80;;;;;;5069095;28;20024;-48
2022/04/04 13:11:24;;;;;;;8.13;5.70;;;18.50;80.90;;;;;;5065303;28;20500;-48
2022/04/04 13:14:06;;;;;;;8.75;5.05;;;18.50;81.80;;;;;;5069097;28;20500;-47
2022/04/04 13:16:43;;;;;;;7.25;5.20;;;18.40;79.20;;;;;;5067452;28;20578;-51
2022/04/04 13:19:14;;;;;;;6.88;4.53;;;18.10;79.50;;;;;;5068786;28;20027;-50
2022/04/04 13:21:48;;;;;;;5.47;4.80;;;17.60;86.80;;;;;;5019407;28;20037;-49